Terminal Aerodrome Forecast
Issued by NWS

Home | Current Version | Previous Version | Text Only | Print | Product List | Glossary On
Versions: 1 2 3 4 5 6 7 8 9 10 11 12 13 14
000
FTUS44 KTSA 290520
TAFFYV
TAF
KFYV 290520Z 2906/3006 15005KT P6SM BKN100
      TEMPO 2909/2913 5SM -TSRA BKN050CB
     FM291300 18006KT P6SM VCTS BKN050CB
     FM291600 19008KT P6SM SCT050 BKN150 PROB30 2921/3001 5SM -TSRA
      BKN040CB
     FM300100 VRB03KT P6SM BKN150=

USA.gov is the U.S. government's official web portal to all federal, state and local government web resources and services.